MOL Beyond — VRPN8 — position and weather

sailwx.info

Track history (hours):
 
Tides and Currents Weather Stations Pressure Air Temp Water Temp Dewpoint Dewpoint Depression Visibility Wind Speed Wind Dir Waves Ship Positions

MOL Beyond

Last reported at 2017-Oct-10 19:41 UTC. Time now 2017-Oct-19 22:06 UTC.
Position N 36°22' E 014°44'.
Warning: this ship's position is 9 days out of date.

Length 337 m; draft 12.3 m.

Type: Ship (hazmat cat A). MMSI: 477348300.

Date/timePositionNaut miles runAvg speedWind from/ knotsBaromVisibWave heightAir tempDewpointWater temp
2017-Oct-10 19:41N 36°22' E 014°44'419.6
2017-Oct-10 19:29N 36°23' E 014°39'1019.9
2017-Oct-10 19:00N 36°27' E 014°27'1019.7
2017-Oct-10 18:30N 36°29' E 014°16'1019.5
2017-Oct-10 18:00N 36°32' E 014°04'1019.5
2017-Oct-10 17:30N 36°34' E 013°52'1019.4
2017-Oct-10 17:00N 36°37' E 013°41'60618.8
2017-Oct-09 08:47N 36°51' E 001°05'718.0
2017-Oct-09 08:23N 36°50' E 000°56'817.9
2017-Oct-09 07:55N 36°48' E 000°46'818.3
2017-Oct-09 07:30N 36°47' E 000°37'918.8
2017-Oct-09 07:00N 36°45' E 000°25'918.7
2017-Oct-09 06:30N 36°43' E 000°14'1319.0
2017-Oct-09 05:48N 36°41' W 000°03'719.2
2017-Oct-09 05:27N 36°40' W 000°11'1019.3
2017-Oct-09 04:55N 36°38' W 000°24'819.0
2017-Oct-09 04:30N 36°36' W 000°33'1019.0
2017-Oct-09 03:59N 36°34' W 000°46'1019.3
2017-Oct-09 03:29N 36°33' W 000°57'2819.3
2017-Oct-09 02:03N 36°27' W 001°31'119.5
2017-Oct-09 02:00N 36°27' W 001°32'25819.0
2017-Oct-08 12:27N 35°56' W 006°49'817.1
2017-Oct-08 12:00N 35°56' W 006°59'918.2
2017-Oct-08 11:30N 35°56' W 007°10'918.6
2017-Oct-08 11:00N 35°56' W 007°22'918.4
2017-Oct-08 10:30N 35°57' W 007°33'918.3
2017-Oct-08 10:00N 35°58' W 007°44'918.2
2017-Oct-08 09:30N 35°58' W 007°55'918.1
2017-Oct-08 09:01N 35°59' W 008°06'918.1
2017-Oct-08 08:30N 35°59' W 008°18'918.0
2017-Oct-08 08:01N 35°59' W 008°29'918.6
2017-Oct-08 07:31N 35°60' W 008°40'918.7
2017-Oct-08 07:00N 36°00' W 008°52'918.6
2017-Oct-08 06:31N 36°01' W 009°03'1019.1
2017-Oct-08 06:01N 36°02' W 009°15'1019.1
2017-Oct-08 05:31N 36°03' W 009°27'1019.3
2017-Oct-08 05:00N 36°04' W 009°39'1019.2
2017-Oct-08 04:31N 36°05' W 009°50'1019.0
2017-Oct-08 04:01N 36°07' W 010°02'1019.1
2017-Oct-08 03:31N 36°08' W 010°14'1019.2
2017-Oct-08 03:01N 36°09' W 010°26'1019.3
2017-Oct-08 02:31N 36°10' W 010°37'1019.3
2017-Oct-08 02:00N 36°11' W 010°49'1019.5
2017-Oct-08 01:31N 36°12' W 011°01'1019.4
2017-Oct-08 01:00N 36°13' W 011°13'1019.3
2017-Oct-08 00:31N 36°14' W 011°25'1019.3
2017-Oct-08 00:01N 36°15' W 011°37'1019.3
2017-Oct-07 23:31N 36°16' W 011°49'919.0
2017-Oct-07 23:01N 36°17' W 012°01'918.9
2017-Oct-07 22:31N 36°18' W 012°12'918.9
2017-Oct-07 22:00N 36°19' W 012°24'919.0
2017-Oct-07 21:31N 36°21' W 012°36'918.8
2017-Oct-07 21:00N 36°22' W 012°47'918.7
2017-Oct-07 20:30N 36°22' W 012°59'919.0
2017-Oct-07 20:00N 36°24' W 013°10'1019.2
2017-Oct-07 19:30N 36°25' W 013°22'918.9
2017-Oct-07 19:01N 36°26' W 013°34'1019.0
2017-Oct-07 18:31N 36°27' W 013°46'1019.1
2017-Oct-07 18:00N 36°28' W 013°58'1019.1
2017-Oct-07 17:30N 36°29' W 014°09'919.1
2017-Oct-07 17:00N 36°30' W 014°21'918.5
2017-Oct-07 16:31N 36°31' W 014°33'35619.4
2017-Oct-06 22:07N 37°11' W 021°55'3719.5
2017-Oct-06 20:12N 37°14' W 022°42'3119.4
2017-Oct-06 18:35N 37°18' W 023°21'218.9
2017-Oct-06 18:30N 37°19' W 023°23'1019.4
2017-Oct-06 18:00N 37°20' W 023°35'1019.4
2017-Oct-06 17:30N 37°21' W 023°47'918.8
2017-Oct-06 17:00N 37°22' W 023°59'918.8
2017-Oct-06 16:30N 37°23' W 024°10'1019.2
2017-Oct-06 16:00N 37°24' W 024°22'1019.3
2017-Oct-06 15:30N 37°25' W 024°34'1019.3
2017-Oct-06 15:01N 37°26' W 024°46'1019.2
2017-Oct-06 14:31N 37°27' W 024°58'918.7
2017-Oct-06 14:01N 37°28' W 025°10'1019.3
2017-Oct-06 13:31N 37°29' W 025°22'1019.3
2017-Oct-06 13:01N 37°30' W 025°34'1019.4
2017-Oct-06 12:31N 37°30' W 025°47'1019.0
2017-Oct-06 12:01N 37°30' W 025°59'1019.9
2017-Oct-06 11:31N 37°30' W 026°11'1019.7
2017-Oct-06 11:01N 37°30' W 026°24'1019.1
2017-Oct-06 10:31N 37°30' W 026°36'1019.3
2017-Oct-06 10:01N 37°29' W 026°48'1019.7
2017-Oct-06 09:31N 37°29' W 027°00'1019.3
2017-Oct-06 09:01N 37°29' W 027°12'1419.1
2017-Oct-06 08:16N 37°29' W 027°30'619.1
2017-Oct-06 07:58N 37°29' W 027°38'1019.4
2017-Oct-06 07:27N 37°28' W 027°50'919.7
2017-Oct-06 07:00N 37°28' W 028°01'919.0
2017-Oct-06 06:30N 37°28' W 028°13'919.0
2017-Oct-06 06:00N 37°27' W 028°25'1019.5
2017-Oct-06 05:31N 37°27' W 028°37'1019.7
2017-Oct-06 05:00N 37°27' W 028°50'1119.3
2017-Oct-06 04:25N 37°26' W 029°04'819.4
2017-Oct-06 04:00N 37°26' W 029°14'1119.1
2017-Oct-06 03:25N 37°26' W 029°28'819.2
2017-Oct-06 03:00N 37°25' W 029°38'1019.5
2017-Oct-06 02:30N 37°25' W 029°50'1019.4
2017-Oct-06 01:59N 37°24' W 030°03'  
Track history (hours):
 
Tides and Currents Weather Stations Pressure Air Temp Water Temp Dewpoint Dewpoint Depression Visibility Wind Speed Wind Dir Waves Ship Positions

MOL Beyond

Last reported at 2017-Oct-10 19:41 UTC. Time now 2017-Oct-19 22:06 UTC.
Position N 36°22' E 014°44'.
Warning: this ship's position is 9 days out of date.

Length 337 m; draft 12.3 m.

Type: Ship (hazmat cat A). MMSI: 477348300.

Date/timePositionNaut miles runAvg speedWind from/ knotsBaromVisibWave heightAir tempDewpointWater temp
2017-Oct-10 19:41N 36°22' E 014°44'419.6
2017-Oct-10 19:29N 36°23' E 014°39'1019.9
2017-Oct-10 19:00N 36°27' E 014°27'1019.7
2017-Oct-10 18:30N 36°29' E 014°16'1019.5
2017-Oct-10 18:00N 36°32' E 014°04'1019.5
2017-Oct-10 17:30N 36°34' E 013°52'1019.4
2017-Oct-10 17:00N 36°37' E 013°41'60618.8
2017-Oct-09 08:47N 36°51' E 001°05'718.0
2017-Oct-09 08:23N 36°50' E 000°56'817.9
2017-Oct-09 07:55N 36°48' E 000°46'818.3
2017-Oct-09 07:30N 36°47' E 000°37'918.8
2017-Oct-09 07:00N 36°45' E 000°25'918.7
2017-Oct-09 06:30N 36°43' E 000°14'1319.0
2017-Oct-09 05:48N 36°41' W 000°03'719.2
2017-Oct-09 05:27N 36°40' W 000°11'1019.3
2017-Oct-09 04:55N 36°38' W 000°24'819.0
2017-Oct-09 04:30N 36°36' W 000°33'1019.0
2017-Oct-09 03:59N 36°34' W 000°46'1019.3
2017-Oct-09 03:29N 36°33' W 000°57'2819.3
2017-Oct-09 02:03N 36°27' W 001°31'119.5
2017-Oct-09 02:00N 36°27' W 001°32'25819.0
2017-Oct-08 12:27N 35°56' W 006°49'817.1
2017-Oct-08 12:00N 35°56' W 006°59'918.2
2017-Oct-08 11:30N 35°56' W 007°10'918.6
2017-Oct-08 11:00N 35°56' W 007°22'918.4
2017-Oct-08 10:30N 35°57' W 007°33'918.3
2017-Oct-08 10:00N 35°58' W 007°44'918.2
2017-Oct-08 09:30N 35°58' W 007°55'918.1
2017-Oct-08 09:01N 35°59' W 008°06'918.1
2017-Oct-08 08:30N 35°59' W 008°18'918.0
2017-Oct-08 08:01N 35°59' W 008°29'918.6
2017-Oct-08 07:31N 35°60' W 008°40'918.7
2017-Oct-08 07:00N 36°00' W 008°52'918.6
2017-Oct-08 06:31N 36°01' W 009°03'1019.1
2017-Oct-08 06:01N 36°02' W 009°15'1019.1
2017-Oct-08 05:31N 36°03' W 009°27'1019.3
2017-Oct-08 05:00N 36°04' W 009°39'1019.2
2017-Oct-08 04:31N 36°05' W 009°50'1019.0
2017-Oct-08 04:01N 36°07' W 010°02'1019.1
2017-Oct-08 03:31N 36°08' W 010°14'1019.2
2017-Oct-08 03:01N 36°09' W 010°26'1019.3
2017-Oct-08 02:31N 36°10' W 010°37'1019.3
2017-Oct-08 02:00N 36°11' W 010°49'1019.5
2017-Oct-08 01:31N 36°12' W 011°01'1019.4
2017-Oct-08 01:00N 36°13' W 011°13'1019.3
2017-Oct-08 00:31N 36°14' W 011°25'1019.3
2017-Oct-08 00:01N 36°15' W 011°37'1019.3
2017-Oct-07 23:31N 36°16' W 011°49'919.0
2017-Oct-07 23:01N 36°17' W 012°01'918.9
2017-Oct-07 22:31N 36°18' W 012°12'918.9
2017-Oct-07 22:00N 36°19' W 012°24'919.0
2017-Oct-07 21:31N 36°21' W 012°36'918.8
2017-Oct-07 21:00N 36°22' W 012°47'918.7
2017-Oct-07 20:30N 36°22' W 012°59'919.0
2017-Oct-07 20:00N 36°24' W 013°10'1019.2
2017-Oct-07 19:30N 36°25' W 013°22'918.9
2017-Oct-07 19:01N 36°26' W 013°34'1019.0
2017-Oct-07 18:31N 36°27' W 013°46'1019.1
2017-Oct-07 18:00N 36°28' W 013°58'1019.1
2017-Oct-07 17:30N 36°29' W 014°09'919.1
2017-Oct-07 17:00N 36°30' W 014°21'918.5
2017-Oct-07 16:31N 36°31' W 014°33'35619.4
2017-Oct-06 22:07N 37°11' W 021°55'3719.5
2017-Oct-06 20:12N 37°14' W 022°42'3119.4
2017-Oct-06 18:35N 37°18' W 023°21'218.9
2017-Oct-06 18:30N 37°19' W 023°23'1019.4
2017-Oct-06 18:00N 37°20' W 023°35'1019.4
2017-Oct-06 17:30N 37°21' W 023°47'918.8
2017-Oct-06 17:00N 37°22' W 023°59'918.8
2017-Oct-06 16:30N 37°23' W 024°10'1019.2
2017-Oct-06 16:00N 37°24' W 024°22'1019.3
2017-Oct-06 15:30N 37°25' W 024°34'1019.3
2017-Oct-06 15:01N 37°26' W 024°46'1019.2
2017-Oct-06 14:31N 37°27' W 024°58'918.7
2017-Oct-06 14:01N 37°28' W 025°10'1019.3
2017-Oct-06 13:31N 37°29' W 025°22'1019.3
2017-Oct-06 13:01N 37°30' W 025°34'1019.4
2017-Oct-06 12:31N 37°30' W 025°47'1019.0
2017-Oct-06 12:01N 37°30' W 025°59'1019.9
2017-Oct-06 11:31N 37°30' W 026°11'1019.7
2017-Oct-06 11:01N 37°30' W 026°24'1019.1
2017-Oct-06 10:31N 37°30' W 026°36'1019.3
2017-Oct-06 10:01N 37°29' W 026°48'1019.7
2017-Oct-06 09:31N 37°29' W 027°00'1019.3
2017-Oct-06 09:01N 37°29' W 027°12'1419.1
2017-Oct-06 08:16N 37°29' W 027°30'619.1
2017-Oct-06 07:58N 37°29' W 027°38'1019.4
2017-Oct-06 07:27N 37°28' W 027°50'919.7
2017-Oct-06 07:00N 37°28' W 028°01'919.0
2017-Oct-06 06:30N 37°28' W 028°13'919.0
2017-Oct-06 06:00N 37°27' W 028°25'1019.5
2017-Oct-06 05:31N 37°27' W 028°37'1019.7
2017-Oct-06 05:00N 37°27' W 028°50'1119.3
2017-Oct-06 04:25N 37°26' W 029°04'819.4
2017-Oct-06 04:00N 37°26' W 029°14'1119.1
2017-Oct-06 03:25N 37°26' W 029°28'819.2
2017-Oct-06 03:00N 37°25' W 029°38'1019.5
2017-Oct-06 02:30N 37°25' W 029°50'1019.4
2017-Oct-06 01:59N 37°24' W 030°03'  

Dump ship's entire track history